Time;durP1;ratioP1;P1;durP2;ratioP2;P2;SDS_P1;SDS_P2;PMS_P1;PMS_P2;Temp;Humidity;BMP_temperature;BMP_pressure;BME280_temperature;BME280_humidity;BME280_pressure;Samples;Min_cycle;Max_cycle;Signal;HPM_P1;HPM_P2
2022/06/09 00:01:26;;;;;;;0.00;0.00;;;21.40;99.00;;;;;;4911172;29;20296;-68
2022/06/09 00:04:02;;;;;;;0.00;0.00;;;21.40;99.00;;;;;;4918841;29;20235;-68
2022/06/09 00:06:38;;;;;;;0.00;0.00;;;21.40;99.10;;;;;;4913822;29;20276;-68
2022/06/09 00:09:05;;;;;;;0.00;0.00;;;21.30;99.50;;;;;;4929655;29;20028;-68
2022/06/09 00:11:34;;;;;;;0.00;0.00;;;21.30;99.60;;;;;;4946197;29;20310;-68
2022/06/09 00:14:01;;;;;;;0.00;0.00;;;21.30;99.50;;;;;;4929546;29;20026;-67
2022/06/09 00:16:27;;;;;;;0.00;0.00;;;21.30;99.90;;;;;;4946353;29;20038;-67
2022/06/09 00:18:53;;;;;;;0.00;0.00;;;21.20;99.90;;;;;;4946529;29;20063;-68
2022/06/09 00:21:18;;;;;;;0.00;0.00;;;21.20;99.90;;;;;;4929208;29;20027;-67
2022/06/09 00:23:44;;;;;;;0.00;0.00;;;21.20;99.90;;;;;;4946563;29;20351;-68
2022/06/09 00:26:09;;;;;;;0.00;0.00;;;21.20;99.90;;;;;;4945314;29;20019;-67
2022/06/09 00:28:35;;;;;;;0.00;0.00;;;21.20;99.90;;;;;;4929014;29;20307;-67
2022/06/09 00:31:01;;;;;;;0.00;0.00;;;21.10;99.90;;;;;;4946278;29;20330;-67
2022/06/09 00:33:27;;;;;;;0.00;0.00;;;21.10;99.90;;;;;;4945631;29;20086;-67
2022/06/09 00:35:52;;;;;;;0.00;0.00;;;21.10;99.90;;;;;;4929267;29;20061;-68
2022/06/09 00:38:18;;;;;;;0.00;0.00;;;21.10;99.90;;;;;;4928855;29;20027;-67
2022/06/09 00:40:44;;;;;;;0.00;0.00;;;21.10;99.90;;;;;;4946336;29;20050;-68
2022/06/09 00:43:09;;;;;;;0.00;0.00;;;21.10;99.90;;;;;;4946039;29;20034;-67
2022/06/09 00:45:42;;;;;;;0.00;0.00;;;21.10;99.90;;;;;;4945860;29;20291;-67
2022/06/09 00:48:35;;;;;;;0.00;0.00;;;21.00;99.90;;;;;;4946219;29;20030;-68
2022/06/09 00:51:29;;;;;;;0.00;0.00;;;21.00;99.90;;;;;;4945912;29;20303;-68
2022/06/09 00:54:01;;;;;;;0.00;0.00;;;21.00;99.90;;;;;;4946129;29;20030;-68
2022/06/09 00:56:27;;;;;;;0.00;0.00;;;21.00;99.90;;;;;;4945573;29;20083;-68
2022/06/09 00:58:55;;;;;;;0.00;0.00;;;21.00;99.90;;;;;;4945728;29;20027;-68
2022/06/09 01:01:23;;;;;;;0.00;0.00;;;20.90;99.90;;;;;;4945685;29;20062;-68
2022/06/09 01:03:57;;;;;;;0.00;0.00;;;20.90;99.90;;;;;;4921292;29;20123;-68
2022/06/09 01:06:28;;;;;;;0.00;0.00;;;20.90;99.90;;;;;;4909647;29;20045;-69
2022/06/09 01:09:14;;;;;;;0.00;0.00;;;20.90;99.90;;;;;;4926791;29;20032;-68
2022/06/09 01:11:41;;;;;;;0.00;0.00;;;20.80;99.90;;;;;;4926267;29;20028;-68
2022/06/09 01:14:10;;;;;;;0.00;0.00;;;20.80;99.90;;;;;;4909992;29;20020;-68
2022/06/09 01:16:54;;;;;;;0.00;0.00;;;20.80;99.90;;;;;;4909266;29;20024;-68
2022/06/09 01:19:38;;;;;;;0.00;0.00;;;20.80;99.90;;;;;;4926213;29;20046;-68
2022/06/09 01:22:19;;;;;;;0.00;0.00;;;20.80;99.90;;;;;;4926732;29;20043;-68
2022/06/09 01:25:08;;;;;;;0.00;0.00;;;20.80;99.90;;;;;;4926177;29;20028;-68
2022/06/09 01:28:11;;;;;;;0.00;0.00;;;20.80;99.90;;;;;;4908281;29;20055;-68
2022/06/09 01:30:55;;;;;;;0.00;0.00;;;20.80;99.90;;;;;;4908732;29;20020;-68
2022/06/09 01:33:48;;;;;;;0.00;0.00;;;20.80;99.90;;;;;;4926064;29;20299;-68
2022/06/09 01:36:32;;;;;;;0.00;0.00;;;20.80;99.90;;;;;;4926713;29;20323;-68
2022/06/09 01:39:01;;;;;;;0.00;0.00;;;20.80;99.90;;;;;;4926657;29;20247;-68
2022/06/09 01:41:27;;;;;;;0.00;0.00;;;20.80;99.90;;;;;;4909324;29;20092;-68
2022/06/09 01:43:55;;;;;;;0.00;0.00;;;20.70;99.90;;;;;;4926681;29;20291;-68
2022/06/09 01:46:31;;;;;;;;;;;20.70;99.90;;;;;;4909691;29;20135;-68
2022/06/09 01:49:10;;;;;;;0.00;0.00;;;20.60;99.90;;;;;;4926659;29;19904;-69
2022/06/09 01:51:39;;;;;;;0.00;0.00;;;20.60;99.90;;;;;;4926213;29;20043;-68
2022/06/09 01:54:23;;;;;;;0.00;0.00;;;20.50;99.90;;;;;;4909668;29;20032;-69
2022/06/09 01:57:06;;;;;;;0.00;0.00;;;20.50;99.90;;;;;;4909818;29;20036;-68
2022/06/09 01:59:44;;;;;;;0.00;0.00;;;20.30;99.90;;;;;;4925829;29;20101;-68
2022/06/09 02:02:19;;;;;;;0.00;0.00;;;20.10;99.90;;;;;;4909532;29;20088;-68
2022/06/09 02:04:59;;;;;;;0.00;0.00;;;20.00;99.90;;;;;;4923348;29;20058;-67
2022/06/09 02:07:27;;;;;;;0.00;0.00;;;19.80;99.90;;;;;;4944793;29;20023;-68
2022/06/09 02:09:54;;;;;;;0.00;0.00;;;19.70;99.90;;;;;;4945177;29;20076;-68
2022/06/09 02:12:23;;;;;;;0.00;0.00;;;19.50;99.90;;;;;;4945026;29;20252;-68
2022/06/09 02:14:52;;;;;;;0.00;0.00;;;19.50;99.90;;;;;;4944968;29;20024;-68
2022/06/09 02:17:19;;;;;;;0.00;0.00;;;19.40;99.90;;;;;;4947188;29;20022;-68
2022/06/09 02:19:47;;;;;;;0.00;0.00;;;19.40;99.90;;;;;;4948258;29;20027;-68
2022/06/09 02:22:13;;;;;;;0.00;0.00;;;19.30;99.90;;;;;;4948699;29;20024;-67
2022/06/09 02:24:40;;;;;;;0.00;0.00;;;19.20;99.90;;;;;;4948246;29;20036;-68
2022/06/09 02:27:06;;;;;;;0.00;0.00;;;19.20;99.90;;;;;;4948843;29;20019;-69
2022/06/09 02:29:33;;;;;;;0.00;0.00;;;19.10;99.90;;;;;;4948005;29;20087;-69
2022/06/09 02:31:59;;;;;;;0.00;0.00;;;19.00;99.90;;;;;;4931548;29;20060;-68
2022/06/09 02:34:24;;;;;;;0.00;0.00;;;19.00;99.90;;;;;;4931302;29;20173;-68
2022/06/09 02:36:50;;;;;;;0.00;0.00;;;19.00;99.90;;;;;;4931530;29;20020;-69
2022/06/09 02:39:16;;;;;;;0.00;0.00;;;18.90;99.90;;;;;;4948335;29;20051;-69
2022/06/09 02:41:41;;;;;;;0.00;0.00;;;18.90;99.90;;;;;;4947889;29;20023;-68
2022/06/09 02:44:07;;;;;;;0.00;0.00;;;18.90;99.90;;;;;;4948105;29;20104;-68
2022/06/09 02:46:33;;;;;;;0.00;0.00;;;18.90;99.90;;;;;;4947731;29;20019;-68
2022/06/09 02:49:00;;;;;;;0.00;0.00;;;18.80;99.90;;;;;;4930925;29;20027;-68
2022/06/09 02:51:27;;;;;;;0.00;0.00;;;18.80;99.90;;;;;;4930885;29;20156;-69
2022/06/09 02:53:54;;;;;;;0.00;0.00;;;18.80;99.90;;;;;;4948174;29;20032;-68
2022/06/09 02:56:20;;;;;;;0.00;0.00;;;18.80;99.90;;;;;;4931077;29;20024;-67
2022/06/09 02:58:46;;;;;;;0.00;0.00;;;18.70;99.90;;;;;;4947498;29;20031;-68
2022/06/09 03:01:12;;;;;;;0.00;0.00;;;18.60;99.90;;;;;;4948065;29;20024;-69
2022/06/09 03:03:37;;;;;;;0.00;0.00;;;18.60;99.90;;;;;;4941500;29;20052;-68
2022/06/09 03:06:03;;;;;;;0.00;0.00;;;18.60;99.90;;;;;;4912047;29;20215;-67
2022/06/09 03:08:30;;;;;;;0.00;0.00;;;18.50;99.90;;;;;;4928356;29;20028;-68
2022/06/09 03:10:55;;;;;;;0.00;0.00;;;18.50;99.90;;;;;;4928700;29;20043;-67
2022/06/09 03:13:21;;;;;;;0.00;0.00;;;18.50;99.90;;;;;;4928925;29;20303;-67
2022/06/09 03:15:48;;;;;;;0.00;0.00;;;18.50;99.90;;;;;;4911322;29;20027;-67
2022/06/09 03:18:15;;;;;;;0.00;0.00;;;18.50;99.90;;;;;;4911838;29;20032;-68
2022/06/09 03:20:41;;;;;;;0.00;0.00;;;18.40;99.90;;;;;;4928084;29;20237;-68
2022/06/09 03:23:06;;;;;;;0.00;0.00;;;18.40;99.90;;;;;;4911736;29;20027;-68
2022/06/09 03:25:33;;;;;;;0.00;0.00;;;18.40;99.90;;;;;;4911468;29;20057;-68
2022/06/09 03:27:58;;;;;;;0.00;0.00;;;18.40;99.90;;;;;;4928580;29;20345;-68
2022/06/09 03:30:24;;;;;;;0.00;0.00;;;18.30;99.90;;;;;;4928621;29;20024;-68
2022/06/09 03:32:50;;;;;;;0.00;0.00;;;18.20;99.90;;;;;;4927937;29;20024;-69
2022/06/09 03:35:16;;;;;;;0.00;0.00;;;18.30;99.90;;;;;;4928566;29;20196;-68
2022/06/09 03:37:42;;;;;;;0.00;0.00;;;18.30;99.90;;;;;;4927925;29;20350;-69
2022/06/09 03:40:15;;;;;;;0.00;0.00;;;18.20;99.90;;;;;;4928218;29;20040;-68
2022/06/09 03:42:41;;;;;;;0.00;0.00;;;18.10;99.90;;;;;;4911283;29;20184;-68
2022/06/09 03:45:07;;;;;;;0.00;0.00;;;18.20;99.90;;;;;;4911348;29;20382;-68
2022/06/09 03:47:33;;;;;;;0.00;0.00;;;18.20;99.90;;;;;;4927874;29;20024;-68
2022/06/09 03:49:58;;;;;;;0.00;0.00;;;18.10;99.90;;;;;;4927933;29;20035;-68
2022/06/09 03:52:24;;;;;;;0.00;0.00;;;18.10;99.90;;;;;;4927907;29;20031;-68
2022/06/09 03:54:50;;;;;;;0.00;0.00;;;18.20;99.90;;;;;;4927519;29;20028;-68
2022/06/09 03:57:16;;;;;;;0.00;0.00;;;18.20;99.90;;;;;;4928239;29;20027;-68
2022/06/09 03:59:41;;;;;;;0.00;0.00;;;18.10;99.90;;;;;;4910704;29;20039;-68
2022/06/09 04:02:07;;;;;;;0.00;0.00;;;18.10;99.90;;;;;;4927802;29;20031;-68
2022/06/09 04:04:33;;;;;;;0.00;0.00;;;18.10;99.90;;;;;;4940644;29;20063;-68
2022/06/09 04:06:59;;;;;;;0.00;0.00;;;18.20;99.90;;;;;;4947056;29;20042;-67
2022/06/09 04:09:25;;;;;;;0.00;0.00;;;18.20;99.90;;;;;;4946583;29;20035;-68
2022/06/09 04:11:51;;;;;;;0.00;0.00;;;18.20;99.90;;;;;;4946336;29;20035;-67
2022/06/09 04:14:16;;;;;;;0.00;0.00;;;18.20;99.90;;;;;;4946472;29;20260;-68
2022/06/09 04:16:46;;;;;;;0.00;0.00;;;18.20;99.90;;;;;;4929417;29;20027;-67
2022/06/09 04:19:15;;;;;;;0.00;0.00;;;18.20;99.90;;;;;;4929429;29;20032;-67
2022/06/09 04:21:42;;;;;;;0.00;0.00;;;18.10;99.90;;;;;;4929049;29;20031;-68
2022/06/09 04:24:08;;;;;;;0.00;0.00;;;18.20;99.90;;;;;;4946247;29;20086;-67
2022/06/09 04:26:37;;;;;;;0.00;0.00;;;18.20;99.90;;;;;;4946129;29;20024;-68
2022/06/09 04:29:05;;;;;;;0.00;0.00;;;18.20;99.90;;;;;;4946557;29;20032;-69
2022/06/09 04:31:31;;;;;;;0.00;0.00;;;18.10;99.90;;;;;;4929243;29;20019;-72
2022/06/09 04:33:57;;;;;;;0.00;0.00;;;18.10;99.90;;;;;;4929440;29;20024;-68
2022/06/09 04:36:23;;;;;;;0.00;0.00;;;18.10;99.90;;;;;;4945259;29;20026;-68
2022/06/09 04:38:49;;;;;;;0.00;0.00;;;18.10;99.90;;;;;;4928197;29;20032;-68
2022/06/09 04:41:16;;;;;;;0.00;0.00;;;18.10;99.90;;;;;;4946131;29;20172;-68
2022/06/09 04:43:44;;;;;;;0.00;0.00;;;18.10;99.90;;;;;;4944691;29;20362;-68
2022/06/09 04:46:13;;;;;;;0.00;0.00;;;18.10;99.90;;;;;;4946055;29;20027;-69
2022/06/09 04:48:40;;;;;;;0.00;0.00;;;18.10;99.90;;;;;;4945962;29;20149;-68
2022/06/09 04:51:13;;;;;;;0.00;0.00;;;18.10;99.90;;;;;;4946298;29;20019;-68
2022/06/09 04:53:39;;;;;;;0.00;0.00;;;18.10;99.90;;;;;;4944700;29;20023;-68
2022/06/09 04:56:06;;;;;;;0.00;0.00;;;18.10;99.90;;;;;;4929226;29;20020;-67
2022/06/09 04:58:33;;;;;;;0.00;0.00;;;18.00;99.90;;;;;;4928990;29;20103;-76
2022/06/09 05:00:58;;;;;;;0.00;0.00;;;18.00;99.90;;;;;;4946014;29;20027;-67
2022/06/09 05:03:24;;;;;;;0.00;0.00;;;18.00;99.90;;;;;;4946094;29;20062;-69
2022/06/09 05:05:51;;;;;;;0.00;0.00;;;18.00;99.90;;;;;;4945576;29;20024;-68
2022/06/09 05:08:17;;;;;;;0.00;0.00;;;18.00;99.90;;;;;;4928977;29;20043;-68
2022/06/09 05:10:46;;;;;;;0.00;0.00;;;18.00;99.90;;;;;;4928674;29;20047;-68
2022/06/09 05:13:13;;;;;;;0.00;0.00;;;17.90;99.90;;;;;;4929025;29;20054;-68
2022/06/09 05:15:48;;;;;;;0.00;0.00;;;17.90;99.90;;;;;;4928038;29;20279;-68
2022/06/09 05:18:13;;;;;;;0.00;0.00;;;17.80;99.90;;;;;;4945756;29;20594;-68
2022/06/09 05:20:39;;;;;;;0.00;0.00;;;17.80;99.90;;;;;;4928370;29;20030;-68
2022/06/09 05:23:05;;;;;;;0.00;0.00;;;17.80;99.90;;;;;;4945905;29;20210;-68
2022/06/09 05:25:30;;;;;;;0.00;0.00;;;17.80;99.90;;;;;;4945457;29;20031;-68
2022/06/09 05:27:56;;;;;;;0.00;0.00;;;17.80;99.90;;;;;;4944317;29;20105;-68
2022/06/09 05:30:24;;;;;;;0.00;0.00;;;17.80;99.90;;;;;;4928790;29;20020;-68
2022/06/09 05:32:50;;;;;;;0.00;0.00;;;17.80;99.90;;;;;;4928448;29;20291;-69
2022/06/09 05:35:16;;;;;;;0.00;0.00;;;17.80;99.90;;;;;;4928896;29;20060;-69
2022/06/09 05:45:58;;;;;;;0.00;0.00;;;17.90;99.90;;;;;;4944953;29;20069;-68
2022/06/09 05:48:24;;;;;;;0.00;0.00;;;18.10;99.90;;;;;;4945570;29;20028;-68
2022/06/09 05:50:52;;;;;;;0.00;0.00;;;18.10;99.90;;;;;;4928073;29;20042;-67
2022/06/09 05:53:18;;;;;;;0.00;0.00;;;18.10;99.90;;;;;;4931845;29;20071;-69
2022/06/09 05:55:44;;;;;;;0.00;0.00;;;18.10;99.90;;;;;;4948976;29;20042;-68
2022/06/09 05:58:10;;;;;;;0.00;0.00;;;18.20;99.90;;;;;;4932254;29;20029;-68
2022/06/09 06:00:37;;;;;;;0.00;0.00;;;18.20;99.90;;;;;;4932402;29;20163;-69
2022/06/09 06:03:03;;;;;;;0.00;0.00;;;18.30;99.90;;;;;;4932240;29;20024;-68
2022/06/09 06:08:14;;;;;;;0.00;0.00;;;18.40;99.90;;;;;;4934922;29;20199;-68
2022/06/09 06:10:40;;;;;;;0.00;0.00;;;18.40;99.90;;;;;;4948481;29;20028;-69
2022/06/09 06:13:05;;;;;;;0.00;0.00;;;18.50;99.90;;;;;;4931945;29;20183;-67
2022/06/09 06:15:32;;;;;;;0.00;0.00;;;18.40;99.90;;;;;;4949198;29;20210;-67
2022/06/09 06:18:01;;;;;;;0.00;0.00;;;18.40;99.90;;;;;;4948930;29;20027;-68
2022/06/09 06:20:26;;;;;;;0.00;0.00;;;18.30;99.90;;;;;;4932423;29;20103;-68
2022/06/09 06:22:52;;;;;;;0.00;0.00;;;18.30;99.90;;;;;;4931634;29;20019;-68
2022/06/09 06:25:18;;;;;;;0.00;0.00;;;18.40;99.90;;;;;;4948754;29;20035;-68
2022/06/09 06:27:44;;;;;;;0.00;0.00;;;18.40;99.90;;;;;;4948463;29;20016;-69
2022/06/09 06:30:10;;;;;;;0.00;0.00;;;18.40;99.90;;;;;;4948645;29;20330;-68
2022/06/09 06:32:35;;;;;;;0.00;0.00;;;18.50;99.90;;;;;;4948627;29;20411;-69
2022/06/09 06:35:01;;;;;;;0.00;0.00;;;18.50;99.90;;;;;;4947619;29;20028;-67
2022/06/09 06:37:27;;;;;;;0.00;0.00;;;18.60;99.90;;;;;;4948495;29;20030;-67
2022/06/09 06:39:53;;;;;;;0.00;0.00;;;18.60;99.90;;;;;;4948002;29;20031;-67
2022/06/09 06:42:19;;;;;;;0.00;0.00;;;18.70;99.90;;;;;;4948314;29;20199;-67
2022/06/09 06:44:44;;;;;;;0.00;0.00;;;18.70;99.90;;;;;;4947995;29;20136;-68
2022/06/09 06:47:11;;;;;;;0.00;0.00;;;18.70;99.90;;;;;;4931523;29;20020;-67
2022/06/09 06:49:37;;;;;;;0.00;0.00;;;18.80;99.90;;;;;;4931482;29;20062;-67
2022/06/09 06:52:03;;;;;;;0.00;0.00;;;18.90;99.90;;;;;;4930837;29;20019;-68
2022/06/09 06:54:30;;;;;;;0.00;0.00;;;18.80;99.90;;;;;;4931019;29;20030;-69
2022/06/09 06:56:55;;;;;;;0.00;0.00;;;18.90;99.90;;;;;;4947953;29;20024;-68
2022/06/09 06:59:21;;;;;;;0.00;0.00;;;19.00;99.90;;;;;;4931003;29;20032;-68
2022/06/09 07:01:47;;;;;;;0.00;0.00;;;19.00;99.90;;;;;;4947043;29;20325;-68
2022/06/09 07:04:13;;;;;;;0.00;0.00;;;19.00;99.90;;;;;;4947919;29;20061;-68
2022/06/09 07:06:38;;;;;;;0.00;0.00;;;18.90;99.90;;;;;;4947848;29;20016;-68
2022/06/09 07:09:04;;;;;;;0.00;0.00;;;18.90;99.90;;;;;;4947609;29;20031;-69
2022/06/09 07:11:30;;;;;;;0.00;0.00;;;18.90;99.90;;;;;;4931051;29;20346;-69
2022/06/09 07:13:55;;;;;;;0.00;0.00;;;18.90;99.90;;;;;;4930267;29;20240;-68
2022/06/09 07:16:21;;;;;;;0.00;0.00;;;18.90;99.90;;;;;;4930841;29;20020;-68
2022/06/09 07:18:47;;;;;;;0.00;0.00;;;18.90;99.90;;;;;;4947080;29;20211;-67
2022/06/09 07:21:14;;;;;;;0.00;0.00;;;18.80;99.90;;;;;;4946830;29;20034;-68
2022/06/09 07:23:40;;;;;;;0.00;0.00;;;18.70;99.90;;;;;;4930609;29;20027;-68
2022/06/09 07:26:06;;;;;;;0.00;0.00;;;18.70;99.90;;;;;;4946722;29;20078;-68
2022/06/09 07:28:32;;;;;;;0.00;0.00;;;18.80;99.90;;;;;;4947294;29;20031;-68
2022/06/09 07:30:59;;;;;;;0.00;0.00;;;18.80;99.90;;;;;;4946962;29;20273;-67
2022/06/09 07:33:31;;;;;;;0.00;0.00;;;18.80;99.90;;;;;;4930124;29;20068;-67
2022/06/09 07:35:58;;;;;;;0.00;0.00;;;18.80;99.90;;;;;;4929787;29;20303;-67
2022/06/09 07:38:25;;;;;;;0.00;0.00;;;19.00;99.90;;;;;;4929928;29;20023;-67
2022/06/09 07:40:51;;;;;;;0.00;0.00;;;19.00;99.90;;;;;;4946972;29;20034;-67
2022/06/09 07:43:19;;;;;;;0.00;0.00;;;19.10;99.90;;;;;;4947022;29;20083;-67
2022/06/09 07:45:46;;;;;;;0.00;0.00;;;19.10;99.90;;;;;;4947086;29;20190;-73
2022/06/09 07:48:12;;;;;;;0.00;0.00;;;19.20;99.90;;;;;;4945277;29;20035;-67
2022/06/09 07:50:38;;;;;;;0.00;0.00;;;19.30;99.90;;;;;;4948723;29;20026;-68
2022/06/09 07:53:06;;;;;;;0.00;0.00;;;19.30;99.90;;;;;;4965439;29;20070;-67
2022/06/09 07:55:32;;;;;;;0.00;0.00;;;19.30;99.90;;;;;;4940751;29;20020;-68
2022/06/09 07:57:58;;;;;;;0.00;0.00;;;19.40;99.90;;;;;;4939983;29;20016;-68
2022/06/09 08:00:26;;;;;;;0.00;0.00;;;19.40;99.90;;;;;;4953850;28;20028;-73
2022/06/09 08:02:52;;;;;;;0.00;0.00;;;19.40;99.90;;;;;;4924205;29;20035;-75
2022/06/09 08:05:21;;;;;;;0.00;0.00;;;19.40;99.90;;;;;;4946407;29;20346;-68
2022/06/09 08:07:47;;;;;;;0.00;0.00;;;19.50;99.90;;;;;;4937443;29;20188;-76
2022/06/09 08:10:20;;;;;;;0.00;0.00;;;19.60;99.90;;;;;;4935993;29;20038;-68
2022/06/09 08:12:47;;;;;;;0.00;0.00;;;19.70;99.90;;;;;;4945597;29;20075;-70
2022/06/09 08:15:14;;;;;;;0.00;0.00;;;19.60;99.80;;;;;;4935217;29;20016;-70
2022/06/09 08:17:40;;;;;;;0.00;0.00;;;19.50;99.70;;;;;;4947769;29;20046;-68
2022/06/09 08:20:07;;;;;;;0.00;0.00;;;19.50;99.90;;;;;;4941190;29;20023;-68
2022/06/09 08:22:32;;;;;;;0.00;0.00;;;19.50;99.90;;;;;;4936116;29;20019;-69
2022/06/09 08:24:58;;;;;;;0.00;0.00;;;19.50;99.90;;;;;;4940568;29;20243;-68
2022/06/09 08:27:24;;;;;;;0.00;0.00;;;19.50;99.90;;;;;;4943711;29;20322;-68
2022/06/09 08:29:51;;;;;;;0.00;0.00;;;19.40;99.80;;;;;;4941655;29;20102;-70
2022/06/09 08:32:17;;;;;;;0.00;0.00;;;19.40;99.90;;;;;;4942681;29;20032;-69
2022/06/09 08:34:42;;;;;;;0.00;0.00;;;19.40;99.90;;;;;;4945647;29;20026;-68
2022/06/09 08:37:08;;;;;;;0.00;0.00;;;19.40;99.90;;;;;;4935438;29;20032;-72
2022/06/09 08:39:34;;;;;;;0.00;0.00;;;19.40;99.90;;;;;;4946999;29;20083;-69
2022/06/09 08:42:28;;;;;;;0.00;0.00;;;19.40;99.70;;;;;;4948342;28;20030;-68
2022/06/09 08:45:02;;;;;;;0.00;0.00;;;19.30;99.90;;;;;;4948413;28;20031;-68
2022/06/09 08:47:45;;;;;;;0.00;0.00;;;19.20;99.80;;;;;;4961897;29;20057;-67
2022/06/09 08:50:17;;;;;;;0.00;0.00;;;19.20;99.90;;;;;;4962208;29;20062;-68
2022/06/09 08:52:46;;;;;;;0.00;0.00;;;19.20;99.90;;;;;;4945515;29;20050;-67
2022/06/09 08:55:38;;;;;;;0.00;0.00;;;19.10;99.90;;;;;;4941480;29;20096;-67
2022/06/09 08:58:31;;;;;;;0.00;0.00;;;19.00;99.90;;;;;;4955297;29;20024;-67
2022/06/09 09:01:05;;;;;;;0.00;0.00;;;19.00;99.90;;;;;;4954063;29;20136;-68
2022/06/09 09:03:51;;;;;;;0.00;0.00;;;18.90;99.90;;;;;;4948876;29;20153;-68
2022/06/09 09:06:23;;;;;;;0.00;0.00;;;19.00;99.90;;;;;;4935022;29;20226;-68
2022/06/09 09:08:49;;;;;;;0.00;0.00;;;18.90;99.90;;;;;;4917696;29;20024;-68
2022/06/09 09:11:41;;;;;;;0.00;0.00;;;18.90;99.90;;;;;;4934202;29;20023;-68
2022/06/09 09:14:28;;;;;;;0.00;0.00;;;18.90;99.90;;;;;;4933059;29;20055;-68
2022/06/09 09:17:01;;;;;;;0.00;0.00;;;18.90;99.90;;;;;;4925921;29;20298;-71
2022/06/09 09:19:51;;;;;;;0.00;0.00;;;18.90;99.90;;;;;;4926289;29;20024;-69
2022/06/09 09:22:39;;;;;;;0.00;0.00;;;18.80;99.90;;;;;;4926094;29;20020;-69
2022/06/09 09:25:23;;;;;;;0.00;0.00;;;18.90;99.90;;;;;;4926039;29;20060;-68
2022/06/09 09:28:15;;;;;;;0.00;0.00;;;18.80;99.90;;;;;;4909611;29;20050;-68
2022/06/09 09:31:03;;;;;;;0.00;0.00;;;18.80;99.90;;;;;;4903945;29;20032;-68
2022/06/09 09:33:30;;;;;;;0.00;0.00;;;18.80;99.90;;;;;;4926588;29;20024;-69
2022/06/09 09:36:02;;;;;;;0.00;0.00;;;18.90;99.90;;;;;;4925712;29;20031;-68
2022/06/09 09:38:38;;;;;;;0.00;0.00;;;18.90;99.90;;;;;;4926116;29;20024;-68
2022/06/09 09:41:05;;;;;;;0.00;0.00;;;18.90;99.90;;;;;;4908939;29;20031;-67
2022/06/09 09:43:40;;;;;;;0.00;0.00;;;18.90;99.90;;;;;;4926359;29;20028;-68
2022/06/09 09:46:23;;;;;;;0.00;0.00;;;18.90;99.90;;;;;;4941584;29;20283;-67
2022/06/09 09:48:49;;;;;;;0.00;0.00;;;18.90;99.90;;;;;;4923956;29;20035;-67
2022/06/09 09:51:14;;;;;;;0.00;0.00;;;19.00;99.90;;;;;;4921712;29;20019;-68
2022/06/09 09:53:40;;;;;;;0.00;0.00;;;19.00;99.90;;;;;;4945620;29;20327;-67
2022/06/09 09:56:32;;;;;;;0.00;0.00;;;19.00;99.90;;;;;;4944795;29;20313;-68
2022/06/09 09:59:01;;;;;;;0.00;0.00;;;19.10;99.90;;;;;;4927365;29;20311;-68
2022/06/09 10:10:07;;;;;;;0.00;0.00;;;19.60;99.90;;;;;;4944342;29;20038;-68
2022/06/09 10:12:34;;;;;;;0.00;0.00;;;19.90;99.90;;;;;;4927961;29;20303;-68
2022/06/09 10:15:09;;;;;;;0.00;0.00;;;20.10;99.90;;;;;;4944572;29;20058;-69
2022/06/09 10:18:02;;;;;;;0.00;0.00;;;20.40;99.90;;;;;;4927422;29;20027;-68
2022/06/09 10:21:05;;;;;;;0.00;0.00;;;20.50;99.70;;;;;;4944329;29;20032;-69
2022/06/09 10:23:43;;;;;;;0.00;0.00;;;20.60;99.30;;;;;;4833587;29;20340;-69
2022/06/09 10:26:19;;;;;;;0.00;0.00;;;20.60;99.20;;;;;;4916491;29;20051;-69
2022/06/09 10:29:04;;;;;;;0.00;0.00;;;20.60;99.50;;;;;;4928172;29;20028;-69
2022/06/09 10:31:43;;;;;;;0.00;0.00;;;20.50;99.30;;;;;;4944749;29;20020;-68
2022/06/09 10:34:38;;;;;;;0.00;0.00;;;20.40;99.70;;;;;;4944339;29;20122;-68
2022/06/09 10:37:17;;;;;;;0.00;0.00;;;20.40;99.80;;;;;;4927626;29;20020;-69
2022/06/09 10:39:57;;;;;;;0.00;0.00;;;20.40;99.70;;;;;;4931151;29;20034;-68
2022/06/09 10:42:35;;;;;;;0.00;0.00;;;20.30;99.60;;;;;;4931475;29;20024;-68
2022/06/09 10:45:29;;;;;;;0.00;0.00;;;20.20;99.40;;;;;;4947696;29;20019;-69
2022/06/09 10:56:54;;;;;;;0.00;0.00;;;20.20;99.90;;;;;;4948094;29;20362;-69
2022/06/09 10:59:47;;;;;;;0.00;0.00;;;20.10;99.90;;;;;;4947469;29;20298;-68
2022/06/09 11:02:21;;;;;;;0.00;0.00;;;20.10;99.80;;;;;;4934420;29;20036;-68
2022/06/09 11:04:48;;;;;;;0.00;0.00;;;20.10;99.90;;;;;;4945393;29;20122;-68
2022/06/09 11:07:20;;;;;;;0.00;0.00;;;20.10;99.90;;;;;;4966432;29;20023;-68
2022/06/09 11:10:01;;;;;;;0.00;0.00;;;20.00;99.90;;;;;;4949578;29;20294;-68
2022/06/09 11:12:45;;;;;;;0.00;0.00;;;19.90;99.80;;;;;;4966827;29;20034;-69
2022/06/09 11:15:25;;;;;;;0.00;0.00;;;19.90;99.90;;;;;;4949602;29;20321;-70
2022/06/09 11:17:54;;;;;;;0.00;0.00;;;19.80;99.90;;;;;;4966956;29;20088;-69
2022/06/09 11:20:22;;;;;;;0.00;0.00;;;19.80;99.90;;;;;;4949133;29;20347;-69
2022/06/09 11:23:11;;;;;;;0.00;0.00;;;19.90;99.90;;;;;;4966582;29;20063;-69
2022/06/09 11:25:52;;;;;;;0.00;0.00;;;19.90;99.90;;;;;;4949799;29;20019;-69
2022/06/09 11:28:24;;;;;;;0.00;0.00;;;19.90;99.90;;;;;;4949203;29;20058;-69
2022/06/09 11:30:58;;;;;;;0.00;0.00;;;19.90;99.90;;;;;;4949622;29;20019;-68
2022/06/09 11:33:36;;;;;;;0.00;0.00;;;19.90;99.90;;;;;;4966317;29;20019;-68
2022/06/09 11:36:15;;;;;;;0.00;0.00;;;19.90;99.90;;;;;;4966351;29;20015;-70
2022/06/09 11:38:49;;;;;;;0.00;0.00;;;19.90;99.90;;;;;;4966303;29;20034;-69
2022/06/09 11:41:46;;;;;;;0.00;0.00;;;19.90;99.90;;;;;;4948945;29;20023;-69
2022/06/09 11:44:18;;;;;;;0.00;0.00;;;20.00;99.90;;;;;;4949163;29;20206;-69
2022/06/09 11:46:44;;;;;;;0.00;0.00;;;19.90;99.90;;;;;;4949620;29;20023;-69
2022/06/09 11:49:23;;;;;;;0.00;0.00;;;19.90;99.90;;;;;;4964820;28;20031;-69
2022/06/09 11:51:49;;;;;;;0.00;0.00;;;19.90;99.90;;;;;;4966452;29;20042;-68
2022/06/09 11:54:37;;;;;;;0.00;0.00;;;19.90;99.90;;;;;;4965944;29;20023;-69
2022/06/09 11:57:36;;;;;;;0.00;0.00;;;19.80;99.90;;;;;;4948771;29;20329;-75
2022/06/09 12:00:05;;;;;;;0.00;0.00;;;19.80;99.90;;;;;;4949092;29;20203;-69
2022/06/09 12:02:33;;;;;;;0.00;0.00;;;19.70;99.90;;;;;;4948989;29;20167;-69
2022/06/09 12:05:22;;;;;;;0.00;0.00;;;19.70;99.90;;;;;;4966225;29;20314;-69
2022/06/09 12:08:10;;;;;;;0.00;0.00;;;19.80;99.90;;;;;;4937080;29;20039;-69
2022/06/09 12:11:01;;;;;;;0.00;0.00;;;19.80;99.90;;;;;;4949031;29;20357;-69
2022/06/09 12:14:18;;;;;;;0.00;0.00;;;19.80;99.90;;;;;;4965655;29;20015;-69
2022/06/09 12:17:05;;;;;;;0.00;0.00;;;19.80;99.90;;;;;;4896892;29;20034;-70
2022/06/09 12:19:36;;;;;;;0.00;0.00;;;19.90;99.90;;;;;;4948805;29;20031;-70
2022/06/09 12:22:40;;;;;;;0.00;0.00;;;19.90;99.90;;;;;;4965911;29;20027;-69
2022/06/09 12:25:11;;;;;;;0.00;0.00;;;19.80;99.90;;;;;;4900666;29;20038;-68
2022/06/09 12:27:37;;;;;;;0.00;0.00;;;19.80;99.90;;;;;;4965506;29;20043;-68
2022/06/09 12:30:03;;;;;;;0.00;0.00;;;19.80;99.90;;;;;;4965946;29;20036;-68
2022/06/09 12:32:36;;;;;;;0.00;0.00;;;19.70;99.90;;;;;;4948271;29;20019;-69
2022/06/09 12:35:04;;;;;;;0.00;0.00;;;19.70;99.90;;;;;;4948537;29;20027;-69
2022/06/09 12:37:34;;;;;;;0.00;0.00;;;19.70;99.90;;;;;;4965020;29;20057;-69
2022/06/09 12:40:16;;;;;;;0.00;0.00;;;19.70;99.90;;;;;;4965622;29;20023;-69
2022/06/09 12:42:49;;;;;;;0.00;0.00;;;19.70;99.90;;;;;;4948729;29;20208;-69
2022/06/09 12:45:17;;;;;;;0.00;0.00;;;19.60;99.90;;;;;;4964916;29;20023;-68
2022/06/09 12:47:58;;;;;;;0.00;0.00;;;19.60;99.90;;;;;;4948285;29;20353;-67
2022/06/09 12:50:34;;;;;;;0.00;0.00;;;19.50;99.90;;;;;;4947980;29;20051;-69
2022/06/09 12:53:04;;;;;;;0.00;0.00;;;19.50;99.90;;;;;;4965482;29;20027;-68
2022/06/09 12:55:35;;;;;;;0.00;0.00;;;19.40;99.90;;;;;;4947975;29;20027;-69
2022/06/09 12:58:42;;;;;;;0.00;0.00;;;19.30;99.90;;;;;;4965680;29;20243;-68
2022/06/09 13:01:14;;;;;;;0.00;0.00;;;19.30;99.90;;;;;;4940631;29;20103;-70
2022/06/09 13:03:46;;;;;;;0.00;0.00;;;19.30;99.90;;;;;;4964869;29;20102;-68
2022/06/09 13:06:38;;;;;;;0.00;0.00;;;19.20;99.90;;;;;;4964941;29;20126;-69
2022/06/09 13:09:18;;;;;;;0.00;0.00;;;19.20;99.90;;;;;;4965380;29;20027;-69
2022/06/09 13:14:32;;;;;;;0.00;0.00;;;19.20;99.90;;;;;;4964614;29;20022;-68
2022/06/09 13:17:08;;;;;;;0.00;0.00;;;19.10;99.90;;;;;;4947676;29;20066;-67
2022/06/09 13:19:36;;;;;;;0.00;0.00;;;19.00;99.90;;;;;;4947787;29;20031;-68
2022/06/09 13:22:06;;;;;;;0.00;0.00;;;18.90;99.90;;;;;;4964702;29;20031;-69
2022/06/09 13:24:38;;;;;;;0.00;0.00;;;18.80;99.90;;;;;;4964668;29;20037;-69
2022/06/09 13:27:11;;;;;;;0.00;0.00;;;18.90;99.90;;;;;;4947601;29;20298;-69
2022/06/09 13:30:03;;;;;;;0.00;0.00;;;18.90;99.90;;;;;;4965087;29;20218;-69
2022/06/09 13:32:49;;;;;;;0.00;0.00;;;18.90;99.90;;;;;;4947470;29;20361;-69
2022/06/09 13:35:40;;;;;;;0.00;0.00;;;19.00;99.90;;;;;;4947357;29;20050;-70
2022/06/09 13:38:29;;;;;;;0.00;0.00;;;19.00;99.90;;;;;;4936184;29;20047;-69
2022/06/09 13:41:02;;;;;;;0.00;0.00;;;19.00;99.90;;;;;;4947679;29;20019;-69
2022/06/09 13:43:31;;;;;;;0.00;0.00;;;19.00;99.90;;;;;;4940343;29;20329;-68